CheckWX is a tool to help pilots better visualize weather data.  It is not intended as a substitute for an official pre-flight weather briefing.

03:38:07 UTC

PAWS METAR
Wasilla Airport
Wasilla, Alaska, USA
Current

13 mins ago

PAWS 220325Z AUTO 00000KT 3SM -SN BR BKN022 BKN028 OVC034 M10/M12 A2949 RMK AO2 P0000 FZRANO
Observed
Jan-22 @ 03:25 UTC
Visibility
3 SM
Flight Rules
MVFR
Conditions
Light Snow, Mist
Cloud Levels
  • Broken at 2,200' AGL
  • Broken at 2,800' AGL
  • Overcast at 3,400' AGL
Temperature
-10°C / 14°F
Dewpoint
-12°C / 10°F
Humidity
85%
Altimeter
29.49" Hg
Pressure
998.62 hPa
Current Rain
0.01"
Previous

21 mins ago

PAWS 220317Z AUTO 00000KT 3SM -SN BR FEW017 SCT025 OVC032 M10/M12 A2949 RMK AO2 P0000 FZRANO
Observed
Jan-22 @ 03:17 UTC
Visibility
3 SM
Flight Rules
MVFR
Conditions
Light Snow, Mist
Cloud Levels
  • Few at 1,700' AGL
  • Scattered at 2,500' AGL
  • Overcast at 3,200' AGL
Temperature
-10°C / 14°F
Dewpoint
-12°C / 10°F
Humidity
85%
Altimeter
29.49" Hg
Pressure
998.62 hPa
Current Rain
0.01"
Previous

32 mins ago

PAWS 220306Z AUTO 00000KT 2 1/2SM -SN BR SCT019 OVC025 M10/M12 A2948 RMK AO2 P0000 FZRANO
Observed
Jan-22 @ 03:06 UTC
Visibility
2 1/2 SM
Flight Rules
IFR
Conditions
Light Snow, Mist
Cloud Levels
  • Scattered at 1,900' AGL
  • Overcast at 2,500' AGL
Temperature
-10°C / 14°F
Dewpoint
-12°C / 10°F
Humidity
85%
Altimeter
29.48" Hg
Pressure
998.32 hPa
Current Rain
0.01"